Newport, WA

4:54 PM PDT on May 27, 2015 (GMT -0700)
ITD | | Change Station
CLOSE
Current Station
Personal Weather Station
Location: Oldtown, ID
Elevation: 2320 ft
Nearby Weather Stations

Elev 2320 ft 48.17 °N, 117.02 °W | Updated 54 minutes ago

Partly Cloudy
Partly Cloudy
72 °F
Feels Like 77 °F
N
2
Wind Variable Wind from WNW
Gusts 4.0 mph

Today
High -- | Low -- °F
--% Chance of Precip.
Yesterday
High -- | Low -- °F
Precip. -- in
4:56 AM 8:35 PM
Waxing Gibbous, 71% visible
Pressure 29.96 in
Visibility 10.0 miles
Clouds Clear
Heat Index 77 °F
Dew Point 46 °F
Humidity 40%
Rainfall in
Snow Depth Not available.
UV 6 out of 12
Pollen 7.90 out of 12
Air Quality Not available.
Flu Activity Sporadic
METAR KDEW 272253Z AUTO 36006KT 10SM CLR 19/09 A2997 RMK AO2 WSHFT 2159 LTG DSNT E AND SE SLP146 T01940094

More Conditions Fewer Conditions

Pressure 29.96 in
Visibility 10.0 miles
Clouds Clear
Heat Index 77 °F
Dew Point 46 °F
Humidity 40%
Rainfall in
Snow Depth Not available.
UV 6 out of 12
Pollen 7.90 out of 12
Air Quality Not available.
Flu Activity Sporadic
METAR KDEW 272253Z AUTO 36006KT 10SM CLR 19/09 A2997 RMK AO2 WSHFT 2159 LTG DSNT E AND SE SLP146 T01940094

More Conditions Fewer Conditions

10-Day Weather Forecast

Almanac

Astronomy

May. 27, 2015 Rise Set
Actual Time
Civil Twilight
Nautical Twilight
Astronomical Twilight
Moon
Length of Visible Light
Length of Day
Tomorrow will be .
, % of the Moon is Illuminated

Today's Extremes

State Highs State Lows

Community

WunderPhotos

Upload Photos

1,824,825 photos uploaded!

WunderBlogs® & News

Nearby

Air Quality

  Air Quality AQ Index Pollutant
Not available.

Snow Depth

Station Depth Elevation

Earthquake Activity

City Distance Mag. Time & Date
Minimum magnitude displayed is 2.5.

Coastal Water Temperatures

Place Temperature

Stations

Nearby Weather Stations

Station Location Temp. Windchill Dew Point Humidity Wind Precip. Elev Updated Type